createdAt,value
2022-09-14T00:02:00.673Z,12.07
2022-09-14T00:07:02.397Z,10.60
2022-09-14T00:12:04.002Z,10.15
2022-09-14T00:17:05.634Z,10.20
2022-09-14T00:22:07.314Z,9.30
2022-09-14T00:27:08.914Z,11.02
2022-09-14T00:32:10.648Z,9.40
2022-09-14T00:37:12.669Z,10.40
2022-09-14T00:42:19.422Z,9.52
2022-09-14T00:47:21.089Z,9.38
2022-09-14T00:52:26.604Z,10.13
2022-09-14T00:57:34.102Z,9.45
2022-09-14T01:02:36.795Z,10.32
2022-09-14T01:08:01.762Z,9.43
2022-09-14T01:13:44.902Z,9.75
2022-09-14T01:18:55.451Z,10.95
2022-09-14T01:24:23.344Z,9.55
2022-09-14T01:29:28.273Z,9.13
2022-09-14T01:34:52.377Z,9.32
2022-09-14T01:40:04.209Z,9.48
2022-09-14T01:45:10.254Z,9.32
2022-09-14T01:50:19.142Z,10.68
2022-09-14T01:55:31.310Z,10.10
2022-09-14T02:00:33.706Z,9.23
2022-09-14T02:06:01.783Z,9.52
2022-09-14T02:11:03.434Z,9.98
2022-09-14T02:16:05.234Z,11.15
2022-09-14T02:21:14.444Z,9.15
2022-09-14T02:26:18.311Z,9.40
2022-09-14T02:31:53.982Z,10.52
2022-09-14T02:37:11.665Z,9.23
2022-09-14T02:42:37.020Z,9.50
2022-09-14T02:47:55.263Z,8.73
2022-09-14T02:53:08.502Z,9.13
2022-09-14T02:58:12.861Z,9.25
2022-09-14T03:03:17.797Z,8.75
2022-09-14T03:08:19.384Z,9.13
2022-09-14T03:13:21.403Z,9.50
2022-09-14T03:18:23.023Z,11.20
2022-09-14T03:23:24.596Z,10.02
2022-09-14T03:28:26.144Z,11.70
2022-09-14T03:33:27.734Z,10.90
2022-09-14T03:38:30.158Z,11.10
2022-09-14T03:43:31.708Z,10.45
2022-09-14T03:48:33.448Z,12.70
2022-09-14T03:53:35.727Z,12.27
2022-09-14T03:58:38.242Z,11.18
2022-09-14T04:03:40.480Z,10.65
2022-09-14T04:08:43.565Z,12.65
2022-09-14T04:13:46.264Z,11.50
2022-09-14T04:18:48.679Z,12.70
2022-09-14T04:29:41.851Z,12.50
2022-09-14T04:34:43.394Z,12.35
2022-09-14T04:39:44.976Z,14.25
2022-09-14T04:44:46.504Z,13.05
2022-09-14T04:49:48.042Z,12.68
2022-09-14T04:54:49.548Z,12.48
2022-09-14T04:59:51.056Z,11.73
2022-09-14T05:04:52.627Z,12.15
2022-09-14T05:09:54.334Z,12.40
2022-09-14T05:14:55.879Z,13.75
2022-09-14T05:19:57.396Z,14.43
2022-09-14T05:24:58.939Z,13.07
2022-09-14T05:30:00.493Z,11.75
2022-09-14T05:35:02.026Z,15.15
2022-09-14T05:40:05.700Z,13.30
2022-09-14T05:45:07.808Z,13.52
2022-09-14T05:50:09.602Z,11.40
2022-09-14T05:55:11.143Z,13.50
2022-09-14T06:00:13.361Z,13.48
2022-09-14T06:05:15.289Z,13.32
2022-09-14T06:10:16.924Z,12.13
2022-09-14T06:15:18.473Z,12.27
2022-09-14T06:20:19.972Z,11.95
2022-09-14T06:25:21.486Z,11.75
2022-09-14T06:30:23.132Z,12.48
2022-09-14T06:35:24.643Z,14.45
2022-09-14T06:40:27.156Z,12.80
2022-09-14T06:45:30.775Z,14.18
2022-09-14T06:50:32.288Z,15.15
2022-09-14T06:55:33.851Z,15.52
2022-09-14T07:00:35.671Z,14.48
2022-09-14T07:05:37.205Z,12.27
2022-09-14T07:10:38.876Z,13.68
2022-09-14T07:15:40.506Z,12.15
2022-09-14T07:20:42.038Z,11.82
2022-09-14T07:25:43.588Z,13.13
2022-09-14T07:30:45.161Z,15.10
2022-09-14T07:35:46.774Z,12.48
2022-09-14T07:40:48.903Z,12.55
2022-09-14T07:45:50.505Z,14.07
2022-09-14T07:51:03.208Z,13.95
2022-09-14T07:56:05.542Z,13.57
2022-09-14T08:01:12.046Z,12.82
2022-09-14T08:06:29.007Z,12.38
2022-09-14T08:11:32.184Z,12.50
2022-09-14T08:16:38.717Z,12.57
2022-09-14T08:21:46.434Z,13.95
2022-09-14T08:26:52.874Z,11.85
2022-09-14T08:32:20.094Z,14.18
2022-09-14T08:37:21.954Z,15.02
2022-09-14T08:42:25.574Z,15.07
2022-09-14T08:47:32.236Z,15.30
2022-09-14T08:52:38.317Z,16.30
2022-09-14T08:57:39.816Z,16.52
2022-09-14T09:03:18.976Z,14.27
2022-09-14T09:08:49.946Z,14.68
2022-09-14T09:13:53.137Z,14.05
2022-09-14T09:19:03.054Z,17.52
2022-09-14T09:24:20.163Z,16.15
2022-09-14T09:29:21.986Z,12.15
2022-09-14T09:34:42.297Z,31.58
2022-09-14T09:39:50.554Z,10.77
2022-09-14T09:45:05.373Z,8.35
2022-09-14T09:50:13.421Z,8.68
2022-09-14T09:55:20.373Z,8.57
2022-09-14T10:00:29.916Z,7.93
2022-09-14T10:05:32.601Z,7.65
2022-09-14T10:10:34.112Z,7.95
2022-09-14T10:15:39.283Z,6.80
2022-09-14T10:21:06.646Z,6.70
2022-09-14T10:26:14.171Z,7.03
2022-09-14T10:31:18.796Z,5.82
2022-09-14T10:36:31.023Z,4.30
2022-09-14T10:42:02.532Z,3.85
2022-09-14T10:47:10.101Z,3.78
2022-09-14T10:52:30.030Z,3.50
2022-09-14T10:57:54.380Z,4.32
2022-09-14T11:03:07.763Z,4.38
2022-09-14T11:08:15.025Z,5.32
2022-09-14T11:13:37.856Z,4.32
2022-09-14T11:18:45.486Z,4.30
2022-09-14T11:23:57.215Z,3.55
2022-09-14T11:29:21.530Z,9.00
2022-09-14T11:34:37.964Z,3.92
2022-09-14T11:39:48.002Z,5.22
2022-09-14T11:44:58.159Z,5.75
2022-09-14T11:50:15.237Z,7.03
2022-09-14T11:55:18.383Z,6.10
2022-09-14T12:00:20.299Z,5.35
2022-09-14T12:05:21.840Z,4.80
2022-09-14T12:10:23.869Z,5.03
2022-09-14T12:15:26.088Z,4.82
2022-09-14T12:20:50.510Z,5.43
2022-09-14T12:26:10.486Z,5.47
2022-09-14T12:31:29.628Z,5.35
2022-09-14T12:36:37.385Z,6.65
2022-09-14T12:41:39.458Z,8.18
2022-09-14T12:46:41.169Z,6.80
2022-09-14T12:51:48.744Z,7.28
2022-09-14T12:57:28.685Z,15.60
2022-09-14T13:02:48.792Z,6.40
2022-09-14T13:07:51.254Z,6.95
2022-09-14T13:13:03.135Z,5.72
2022-09-14T13:18:07.557Z,6.45
2022-09-14T13:23:23.113Z,5.85
2022-09-14T13:28:27.946Z,5.78
2022-09-14T13:33:30.308Z,6.25
2022-09-14T13:38:34.685Z,5.93
2022-09-14T13:43:36.501Z,5.38
2022-09-14T13:48:42.867Z,6.00
2022-09-14T13:53:49.908Z,6.43
2022-09-14T13:59:18.466Z,6.75
2022-09-14T14:04:36.263Z,6.85
2022-09-14T14:09:42.624Z,6.35
2022-09-14T14:14:56.621Z,7.15
2022-09-14T14:20:00.902Z,7.25
2022-09-14T14:25:19.122Z,6.13
2022-09-14T14:30:21.914Z,6.85
2022-09-14T14:35:27.073Z,7.50
2022-09-14T14:40:28.805Z,8.38
2022-09-14T14:45:35.953Z,7.90
2022-09-14T14:50:38.512Z,9.32
2022-09-14T14:55:40.943Z,9.95
2022-09-14T15:00:43.111Z,9.60
2022-09-14T15:05:48.061Z,8.10
2022-09-14T15:10:56.092Z,9.32
2022-09-14T15:15:57.691Z,8.00
2022-09-14T15:20:59.339Z,8.15
2022-09-14T15:26:01.064Z,7.28
2022-09-14T15:31:07.111Z,8.07
2022-09-14T15:36:09.360Z,7.93
2022-09-14T15:41:12.575Z,7.85
2022-09-14T15:46:14.189Z,7.35
2022-09-14T15:51:17.201Z,6.95
2022-09-14T15:56:19.575Z,7.15
2022-09-14T16:01:21.238Z,5.72
2022-09-14T16:06:23.004Z,6.20
2022-09-14T16:11:24.769Z,7.22
2022-09-14T16:16:26.700Z,7.13
2022-09-14T16:21:28.361Z,8.27
2022-09-14T16:26:33.764Z,7.85
2022-09-14T16:31:37.465Z,7.28
2022-09-14T16:36:40.555Z,8.80
2022-09-14T16:41:43.581Z,8.45
2022-09-14T16:46:45.912Z,9.40
2022-09-14T16:51:47.568Z,11.00
2022-09-14T16:56:49.535Z,11.23
2022-09-14T17:01:54.523Z,11.00
2022-09-14T17:06:56.881Z,10.65
2022-09-14T17:11:59.086Z,11.77
2022-09-14T17:17:01.418Z,11.02
2022-09-14T17:22:03.931Z,10.50
2022-09-14T17:27:05.540Z,6.68
2022-09-14T17:32:09.275Z,6.72
2022-09-14T17:37:14.191Z,7.40
2022-09-14T17:42:15.809Z,9.23
2022-09-14T17:47:17.432Z,8.10
2022-09-14T17:52:18.999Z,8.45
2022-09-14T17:57:20.589Z,10.57
2022-09-14T18:02:24.681Z,10.98
2022-09-14T18:07:27.064Z,11.07
2022-09-14T18:12:32.357Z,11.77
2022-09-14T18:17:38.030Z,11.85
2022-09-14T18:22:39.600Z,11.35
2022-09-14T18:27:41.184Z,12.27
2022-09-14T18:32:42.738Z,12.13
2022-09-14T18:37:44.315Z,12.88
2022-09-14T18:42:46.076Z,11.55
2022-09-14T18:47:47.634Z,15.77
2022-09-14T18:52:50.695Z,11.48
2022-09-14T18:57:52.360Z,13.23
2022-09-14T19:02:57.359Z,14.93
2022-09-14T19:07:59.878Z,12.65
2022-09-14T19:13:01.585Z,14.02
2022-09-14T19:18:03.154Z,15.75
2022-09-14T19:23:07.048Z,13.43
2022-09-14T19:28:09.009Z,22.83
2022-09-14T19:33:10.663Z,17.27
2022-09-14T19:38:12.192Z,13.65
2022-09-14T19:43:13.795Z,9.63
2022-09-14T19:48:15.524Z,3.63
2022-09-14T19:53:17.095Z,2.42
2022-09-14T19:58:18.737Z,2.85
2022-09-14T20:03:20.312Z,5.38
2022-09-14T20:08:21.869Z,3.03
2022-09-14T20:13:23.495Z,2.40
2022-09-14T20:18:25.391Z,2.25
2022-09-14T20:23:29.271Z,1.83
2022-09-14T20:28:33.693Z,1.77
2022-09-14T20:33:37.844Z,2.83
2022-09-14T20:38:48.502Z,2.10
2022-09-14T20:43:53.260Z,2.60
2022-09-14T20:48:55.085Z,2.22
2022-09-14T20:53:57.141Z,2.42
2022-09-14T20:59:00.906Z,2.50
2022-09-14T21:04:13.936Z,4.45
2022-09-14T21:09:18.092Z,8.05
2022-09-14T21:14:20.593Z,2.47
2022-09-14T21:19:27.408Z,3.50
2022-09-14T21:24:31.034Z,2.90
2022-09-14T21:29:32.731Z,2.58
2022-09-14T21:34:34.358Z,3.00
2022-09-14T21:39:37.984Z,2.38
2022-09-14T21:44:39.568Z,3.40
2022-09-14T21:49:41.116Z,2.58
2022-09-14T21:54:42.676Z,2.08
2022-09-14T21:59:44.420Z,1.95
2022-09-14T22:04:46.224Z,1.73
2022-09-14T22:09:50.150Z,1.80
2022-09-14T22:14:52.018Z,1.40
2022-09-14T22:19:59.449Z,1.50
2022-09-14T22:25:01.077Z,1.95
2022-09-14T22:48:47.951Z,2.95
2022-09-14T22:54:48.059Z,2.63
2022-09-14T23:06:23.868Z,2.20
2022-09-14T23:12:13.782Z,2.90
2022-09-14T23:22:56.729Z,3.42
2022-09-14T23:28:23.248Z,3.22
2022-09-14T23:51:02.776Z,4.50
